Time;durP1;ratioP1;P1;durP2;ratioP2;P2;SDS_P1;SDS_P2;PMS_P1;PMS_P2;Temp;Humidity;BMP_temperature;BMP_pressure;BME280_temperature;BME280_humidity;BME280_pressure;Samples;Min_cycle;Max_cycle;Signal;HPM_P1;HPM_P2
2023/12/04 00:01:19;;;;;;;17.63;8.55;;;-5.50;99.90;;;-6.76;100.00;97361.28;4992566;28;20548;-37
2023/12/04 00:03:45;;;;;;;17.00;8.00;;;-5.40;99.90;;;-6.73;100.00;97363.97;4991879;28;20073;-37
2023/12/04 00:06:12;;;;;;;15.90;8.10;;;-5.40;99.90;;;-6.74;100.00;97356.22;4989332;28;20033;-38
2023/12/04 00:08:37;;;;;;;17.05;7.97;;;-5.40;99.90;;;-6.72;100.00;97344.28;4983959;28;20135;-37
2023/12/04 00:11:05;;;;;;;14.43;7.88;;;-5.40;99.90;;;-6.74;100.00;97351.09;4990117;28;20038;-38
2023/12/04 00:13:31;;;;;;;15.57;7.95;;;-5.40;99.90;;;-6.76;100.00;97348.47;4991669;28;20034;-40
2023/12/04 00:15:56;;;;;;;14.60;7.78;;;-5.40;99.90;;;-6.74;100.00;97343.38;4992815;28;20612;-37
2023/12/04 00:18:22;;;;;;;15.27;8.15;;;-5.40;99.90;;;-6.74;100.00;97336.56;4990495;28;20033;-37
2023/12/04 00:20:48;;;;;;;17.10;8.23;;;-5.40;99.90;;;-6.73;100.00;97333.19;4990650;28;20037;-37
2023/12/04 00:23:14;;;;;;;16.73;8.85;;;-5.40;99.90;;;-6.74;100.00;97326.28;4993243;28;20490;-37
2023/12/04 00:25:39;;;;;;;19.10;8.52;;;-5.40;99.90;;;-6.75;100.00;97321.13;4995411;28;20034;-37
2023/12/04 00:28:05;;;;;;;16.48;8.27;;;-5.40;99.90;;;-6.75;100.00;97319.44;4993771;28;20038;-37
2023/12/04 00:30:31;;;;;;;16.38;8.30;;;-5.50;99.90;;;-6.76;100.00;97317.69;4989337;28;20577;-36
2023/12/04 00:32:56;;;;;;;19.45;8.63;;;-5.40;99.90;;;-6.83;100.00;97299.53;4990902;28;20041;-37
2023/12/04 00:35:22;;;;;;;14.98;7.63;;;-5.50;99.90;;;-6.81;100.00;97297.88;4991888;28;20107;-37
2023/12/04 00:37:48;;;;;;;16.05;8.38;;;-5.50;99.90;;;-6.81;100.00;97292.75;4990080;28;20045;-36
2023/12/04 00:40:14;;;;;;;18.55;9.23;;;-5.50;99.90;;;-6.84;100.00;97285.81;4992869;28;20542;-39
2023/12/04 00:42:39;;;;;;;18.77;8.65;;;-5.50;99.90;;;-6.80;100.00;97297.03;4991239;28;20030;-40
2023/12/04 00:45:06;;;;;;;18.15;9.23;;;-5.50;99.90;;;-6.79;100.00;97299.63;4991649;28;20029;-39
2023/12/04 00:47:31;;;;;;;16.90;8.60;;;-5.50;99.90;;;-6.80;100.00;97291.91;4991931;28;20038;-39
2023/12/04 00:49:57;;;;;;;19.15;9.70;;;-5.50;99.90;;;-6.79;100.00;97293.66;4994768;28;20040;-37
2023/12/04 00:52:23;;;;;;;17.02;8.40;;;-5.50;99.90;;;-6.77;100.00;97299.69;4990802;28;20131;-36
2023/12/04 00:54:48;;;;;;;19.00;8.95;;;-5.50;99.90;;;-6.80;100.00;97287.66;4995014;28;20209;-36
2023/12/04 00:57:14;;;;;;;16.80;9.23;;;-5.50;99.90;;;-6.83;100.00;97282.44;4992261;28;20105;-36
2023/12/04 00:59:40;;;;;;;15.65;7.95;;;-5.50;99.90;;;-6.80;100.00;97284.19;4992748;28;20034;-37
2023/12/04 01:02:07;;;;;;;17.55;8.27;;;-5.50;99.90;;;-6.78;100.00;97274.88;4991665;28;20029;-38
2023/12/04 01:04:33;;;;;;;19.35;8.25;;;-5.50;99.90;;;-6.83;100.00;97272.19;4987206;28;20104;-38
2023/12/04 01:06:59;;;;;;;16.15;9.02;;;-5.50;99.90;;;-6.78;100.00;97282.56;4990083;28;20501;-36
2023/12/04 01:09:24;;;;;;;16.58;7.70;;;-5.40;99.90;;;-6.80;100.00;97263.69;4992312;28;20025;-37
2023/12/04 01:11:53;;;;;;;17.80;8.73;;;-5.40;99.90;;;-6.73;100.00;97273.28;4993168;28;20430;-36
2023/12/04 01:14:22;;;;;;;20.02;8.63;;;-5.40;99.90;;;-6.73;100.00;97265.59;4991938;28;20705;-37
2023/12/04 01:16:47;;;;;;;18.67;9.07;;;-5.40;99.90;;;-6.66;100.00;97266.66;4994795;28;20041;-37
2023/12/04 01:19:13;;;;;;;17.90;8.30;;;-5.30;99.90;;;-6.69;100.00;97262.31;4999644;28;20021;-36
2023/12/04 01:21:39;;;;;;;17.33;9.18;;;-5.30;99.90;;;-6.66;100.00;97261.53;4997648;28;20635;-38
2023/12/04 01:24:05;;;;;;;16.77;8.15;;;-5.30;99.90;;;-6.69;100.00;97252.06;4999255;28;20406;-37
2023/12/04 01:26:31;;;;;;;20.77;8.98;;;-5.30;99.90;;;-6.58;100.00;97266.03;4998444;28;20116;-37
2023/12/04 01:28:57;;;;;;;17.40;8.63;;;-5.30;99.90;;;-6.59;100.00;97253.16;4998337;28;20044;-37
2023/12/04 01:31:22;;;;;;;17.38;7.82;;;-5.20;99.90;;;-6.53;100.00;97250.78;4995997;28;20038;-38
2023/12/04 01:33:48;;;;;;;19.65;8.82;;;-5.20;99.90;;;-6.49;100.00;97254.31;4999145;28;20026;-37
2023/12/04 01:36:14;;;;;;;17.40;8.25;;;-5.20;99.90;;;-6.51;100.00;97238.88;4996767;28;20683;-37
2023/12/04 01:38:39;;;;;;;16.13;8.18;;;-5.20;99.90;;;-6.41;100.00;97238.28;4998185;28;20037;-37
2023/12/04 01:41:06;;;;;;;18.13;8.85;;;-5.10;99.90;;;-6.41;100.00;97245.97;4998286;28;20063;-37
2023/12/04 01:43:31;;;;;;;17.27;8.52;;;-5.10;99.90;;;-6.36;100.00;97238.41;4998776;28;20084;-38
2023/12/04 01:45:59;;;;;;;17.92;8.45;;;-5.10;99.90;;;-6.32;100.00;97236.78;4993728;28;20096;-37
2023/12/04 01:48:26;;;;;;;17.02;8.02;;;-5.00;99.90;;;-6.32;100.00;97236.78;4983363;28;20117;-38
2023/12/04 01:50:52;;;;;;;17.75;8.65;;;-5.00;99.90;;;-6.33;100.00;97225.66;4983533;28;20077;-39
2023/12/04 01:53:18;;;;;;;16.63;8.65;;;-5.00;99.90;;;-6.36;100.00;97226.44;4982119;28;20033;-38
2023/12/04 01:55:43;;;;;;;17.30;8.32;;;-5.00;99.90;;;-6.30;100.00;97238.56;4984500;28;20041;-37
2023/12/04 01:58:10;;;;;;;15.40;7.47;;;-5.00;99.90;;;-6.35;100.00;97232.47;4996686;28;20052;-37
2023/12/04 02:00:36;;;;;;;18.25;8.43;;;-5.00;99.90;;;-6.29;100.00;97240.31;4997260;28;20025;-37
2023/12/04 02:03:02;;;;;;;13.40;7.40;;;-5.00;99.90;;;-6.29;100.00;97236.88;5000323;28;20040;-37
2023/12/04 02:05:28;;;;;;;17.95;8.32;;;-5.00;99.90;;;-6.30;100.00;97232.56;4998210;28;20059;-38
2023/12/04 02:07:55;;;;;;;17.63;8.52;;;-5.00;99.90;;;-6.27;100.00;97235.22;4980103;28;20223;-37
2023/12/04 02:10:22;;;;;;;15.45;8.25;;;-5.00;99.90;;;-6.40;100.00;97208.38;4999667;28;20387;-37
2023/12/04 02:12:48;;;;;;;14.75;7.80;;;-5.00;99.90;;;-6.27;100.00;97237.78;4999848;28;20516;-37
2023/12/04 02:15:14;;;;;;;15.95;7.85;;;-5.00;99.90;;;-6.27;100.00;97235.22;4979643;28;20042;-37
2023/12/04 02:17:40;;;;;;;17.45;8.25;;;-4.90;99.90;;;-6.26;100.00;97231.81;4994526;28;20493;-37
2023/12/04 02:20:07;;;;;;;16.13;7.90;;;-5.00;99.90;;;-6.28;100.00;97224.09;4981702;28;20458;-38
2023/12/04 02:22:33;;;;;;;13.90;7.13;;;-5.00;99.90;;;-6.32;100.00;97214.56;4998088;28;20034;-37
2023/12/04 02:25:00;;;;;;;17.65;7.28;;;-5.00;99.90;;;-6.39;100.00;97195.59;4995710;28;20133;-37
2023/12/04 02:27:34;;;;;;;13.05;7.22;;;-5.00;99.90;;;-6.35;100.00;97209.38;4981245;28;20033;-37
2023/12/04 02:30:01;;;;;;;15.75;7.50;;;-5.10;99.90;;;-6.38;100.00;97201.56;4995132;28;20040;-37
2023/12/04 02:32:31;;;;;;;15.32;7.22;;;-5.10;99.90;;;-6.42;100.00;97203.19;4976303;28;20384;-37
2023/12/04 02:34:59;;;;;;;14.27;7.57;;;-5.20;99.90;;;-6.49;100.00;97206.41;4989508;28;20030;-37
2023/12/04 02:37:26;;;;;;;14.85;7.45;;;-5.20;99.90;;;-6.56;100.00;97209.66;4993672;28;20022;-38
2023/12/04 02:39:54;;;;;;;17.42;7.45;;;-5.20;99.90;;;-6.61;100.00;97211.22;4994275;28;20026;-37
2023/12/04 02:42:21;;;;;;;16.73;7.50;;;-5.20;99.90;;;-6.57;100.00;97215.59;4988240;28;20110;-37
2023/12/04 02:44:47;;;;;;;15.82;7.47;;;-5.30;99.90;;;-6.57;100.00;97216.50;4993075;28;20775;-37
2023/12/04 02:47:13;;;;;;;17.00;7.43;;;-5.30;99.90;;;-6.65;100.00;97207.72;4994873;28;20038;-37
2023/12/04 02:49:39;;;;;;;12.60;7.03;;;-5.30;99.90;;;-6.62;100.00;97206.91;4975828;28;20205;-38
2023/12/04 02:52:05;;;;;;;15.27;7.72;;;-5.30;99.90;;;-6.63;100.00;97205.19;4992796;28;20037;-37
2023/12/04 02:54:31;;;;;;;15.27;7.68;;;-5.40;99.90;;;-6.69;100.00;97194.75;4992311;28;20064;-37
2023/12/04 02:56:56;;;;;;;14.32;7.03;;;-5.30;99.90;;;-6.64;100.00;97188.03;4989848;28;20030;-38
2023/12/04 02:59:22;;;;;;;14.65;7.53;;;-5.40;99.90;;;-6.64;100.00;97185.47;4993511;28;20509;-39
2023/12/04 03:01:48;;;;;;;13.68;6.85;;;-5.30;99.90;;;-6.68;100.00;97170.84;4992757;28;20038;-38
2023/12/04 03:04:13;;;;;;;16.52;7.93;;;-5.40;99.90;;;-6.67;100.00;97170.03;4994151;28;20040;-38
2023/12/04 03:06:39;;;;;;;14.00;6.95;;;-5.40;99.90;;;-6.66;100.00;97158.91;4993519;28;20030;-38
2023/12/04 03:09:05;;;;;;;16.67;8.52;;;-5.40;99.90;;;-6.67;100.00;97150.38;4994387;28;20042;-38
2023/12/04 03:11:30;;;;;;;16.15;7.47;;;-5.40;99.90;;;-6.69;100.00;97153.69;4992218;28;20498;-38
2023/12/04 03:13:57;;;;;;;14.65;7.40;;;-5.40;99.90;;;-6.75;100.00;97134.78;4991652;28;20034;-38
2023/12/04 03:16:23;;;;;;;19.00;8.52;;;-5.40;99.90;;;-6.74;100.00;97130.50;4977591;28;20873;-37
2023/12/04 03:18:49;;;;;;;15.13;7.30;;;-5.40;99.90;;;-6.65;100.00;97140.16;4991942;28;20431;-37
2023/12/04 03:21:14;;;;;;;15.50;8.30;;;-5.40;99.90;;;-6.66;100.00;97138.41;4987281;28;20029;-38
2023/12/04 03:23:40;;;;;;;16.13;7.88;;;-5.30;99.90;;;-6.61;100.00;97129.13;4990652;28;20553;-37
2023/12/04 03:26:06;;;;;;;17.85;8.10;;;-5.30;99.90;;;-6.58;100.00;97124.09;4973772;28;20120;-38
2023/12/04 03:28:32;;;;;;;12.70;7.22;;;-5.30;99.90;;;-6.60;100.00;97133.44;4992984;28;20399;-38
2023/12/04 03:30:57;;;;;;;15.73;7.95;;;-5.30;99.90;;;-6.63;100.00;97115.41;4995583;28;20025;-38
2023/12/04 03:33:23;;;;;;;15.85;8.07;;;-5.30;99.90;;;-6.51;100.00;97125.97;4992603;28;20418;-40
2023/12/04 03:35:49;;;;;;;14.30;7.25;;;-5.20;99.90;;;-6.48;100.00;97115.78;4986780;28;20026;-37
2023/12/04 03:38:14;;;;;;;14.55;7.53;;;-5.20;99.90;;;-6.45;100.00;97115.00;4993195;28;20030;-39
2023/12/04 03:40:40;;;;;;;12.90;7.13;;;-5.10;99.90;;;-6.41;100.00;97114.25;4989680;28;20072;-38
2023/12/04 03:43:06;;;;;;;14.75;7.22;;;-5.10;99.90;;;-6.38;100.00;97102.34;4991587;28;20026;-40
2023/12/04 03:45:31;;;;;;;18.75;8.18;;;-5.10;99.90;;;-6.36;100.00;97095.56;4981792;28;20045;-38
2023/12/04 03:47:57;;;;;;;15.80;7.97;;;-5.00;99.90;;;-6.32;100.00;97093.06;4988951;28;20061;-39
2023/12/04 03:50:23;;;;;;;16.40;7.10;;;-5.00;99.90;;;-6.55;100.00;97039.50;4991383;28;20038;-37
2023/12/04 03:52:48;;;;;;;16.48;8.15;;;-5.00;99.90;;;-6.27;100.00;97084.66;4991568;28;20034;-38
2023/12/04 03:55:14;;;;;;;16.60;7.57;;;-5.00;99.90;;;-6.24;100.00;97081.31;4993150;28;20042;-38
2023/12/04 03:57:40;;;;;;;17.98;7.95;;;-4.90;99.90;;;-6.20;100.00;97093.38;4989856;28;20109;-39
2023/12/04 04:00:06;;;;;;;15.93;7.97;;;-4.90;99.90;;;-6.24;100.00;97071.91;4986355;28;20105;-39
2023/12/04 04:02:32;;;;;;;15.18;7.85;;;-4.90;99.90;;;-6.34;100.00;97060.53;4988287;28;20498;-39
2023/12/04 04:04:57;;;;;;;15.85;8.05;;;-4.90;99.90;;;-6.19;100.00;97090.84;4994876;28;20045;-37
2023/12/04 04:07:23;;;;;;;15.85;7.80;;;-4.90;99.90;;;-6.19;100.00;97080.56;4991511;28;20042;-38
2023/12/04 04:09:49;;;;;;;18.05;8.32;;;-4.90;99.90;;;-6.15;100.00;97086.66;4992815;28;20041;-38
2023/12/04 04:12:14;;;;;;;14.50;7.57;;;-4.90;99.90;;;-6.16;100.00;97090.03;4989052;28;20410;-37
2023/12/04 04:14:40;;;;;;;17.70;8.15;;;-4.90;99.90;;;-6.10;100.00;97086.75;4994437;28;20040;-37
2023/12/04 04:17:12;;;;;;;17.30;7.85;;;-4.80;99.90;;;-6.12;100.00;97070.44;4988144;28;20027;-38
2023/12/04 04:19:37;;;;;;;14.98;7.70;;;-4.80;99.90;;;-6.06;100.00;97070.59;4993343;28;20033;-37
2023/12/04 04:22:03;;;;;;;14.90;7.93;;;-4.80;99.90;;;-6.07;100.00;97062.00;4989733;28;20138;-38
2023/12/04 04:24:29;;;;;;;14.35;7.65;;;-4.70;99.90;;;-5.98;100.00;97079.31;4991473;28;20034;-38
2023/12/04 04:26:55;;;;;;;14.13;7.38;;;-4.70;99.90;;;-5.94;100.00;97068.25;4991453;28;20291;-38
2023/12/04 04:29:20;;;;;;;16.52;7.40;;;-4.60;99.90;;;-5.98;100.00;97072.47;4993445;28;20056;-38
2023/12/04 04:31:46;;;;;;;13.38;6.65;;;-4.60;99.90;;;-5.86;100.00;97079.56;4990303;28;20025;-38
2023/12/04 04:34:12;;;;;;;16.20;7.90;;;-4.60;99.90;;;-5.95;100.00;97062.25;4990541;28;20034;-39
2023/12/04 04:36:37;;;;;;;14.93;8.15;;;-4.60;99.90;;;-5.83;100.00;97083.88;4990673;28;20080;-38
2023/12/04 04:39:03;;;;;;;15.18;7.43;;;-4.50;99.90;;;-5.82;100.00;97078.78;4994807;28;20030;-38
2023/12/04 04:41:29;;;;;;;13.65;6.57;;;-4.60;99.90;;;-5.81;100.00;97070.25;4986114;28;20387;-40
2023/12/04 04:43:55;;;;;;;14.50;7.55;;;-4.50;99.90;;;-5.79;100.00;97072.88;4990894;28;20042;-38
2023/12/04 04:46:20;;;;;;;12.75;7.53;;;-4.50;99.90;;;-5.81;100.00;97075.41;4986613;28;20076;-38
2023/12/04 04:48:46;;;;;;;15.25;7.80;;;-4.50;99.90;;;-5.83;100.00;97078.75;4991461;28;20037;-37
2023/12/04 04:51:11;;;;;;;14.63;7.53;;;-4.60;99.90;;;-5.84;100.00;97069.34;4990653;28;20058;-38
2023/12/04 04:53:38;;;;;;;15.02;7.93;;;-4.50;99.90;;;-5.81;100.00;97075.41;4990577;28;20030;-38
2023/12/04 04:56:05;;;;;;;14.98;7.50;;;-4.60;99.90;;;-5.84;100.00;97071.91;4991764;28;20113;-39
2023/12/04 04:58:30;;;;;;;15.75;7.30;;;-4.60;99.90;;;-5.81;100.00;97075.41;4991495;28;20026;-37
2023/12/04 05:00:56;;;;;;;14.93;7.05;;;-4.50;99.90;;;-5.80;100.00;97065.97;4987075;28;20025;-38
2023/12/04 05:03:22;;;;;;;15.70;8.02;;;-4.50;99.90;;;-5.81;100.00;97067.69;4990036;28;20058;-38
2023/12/04 05:05:47;;;;;;;16.75;8.50;;;-4.50;99.90;;;-5.80;100.00;97061.72;4990230;28;20501;-37
2023/12/04 05:08:13;;;;;;;15.68;8.20;;;-4.50;99.90;;;-5.76;100.00;97050.69;4992010;28;20099;-38
2023/12/04 05:10:39;;;;;;;15.48;8.25;;;-4.50;99.90;;;-5.74;100.00;97048.16;4990386;28;20042;-37
2023/12/04 05:13:05;;;;;;;15.38;7.88;;;-4.40;99.90;;;-5.74;100.00;97040.44;4993722;28;20034;-38
2023/12/04 05:15:30;;;;;;;16.02;8.18;;;-4.40;99.90;;;-5.70;100.00;97037.09;4985567;28;20034;-38
2023/12/04 05:17:56;;;;;;;16.25;7.97;;;-4.40;99.90;;;-5.73;100.00;97028.47;4987151;28;20664;-39
2023/12/04 05:20:22;;;;;;;14.25;7.65;;;-4.40;99.90;;;-5.73;100.00;97020.75;4990627;28;20042;-39
2023/12/04 05:22:49;;;;;;;14.95;8.07;;;-4.40;99.90;;;-5.72;100.00;97014.75;4991328;28;20399;-37
2023/12/04 05:25:14;;;;;;;13.77;7.35;;;-4.40;99.90;;;-5.64;100.00;97023.50;4990054;28;20042;-38
2023/12/04 05:27:40;;;;;;;17.33;8.52;;;-4.30;99.90;;;-5.69;100.00;97022.53;4993631;28;20426;-39
2023/12/04 05:30:07;;;;;;;15.35;7.50;;;-4.40;99.90;;;-5.65;100.00;97016.63;4991973;28;20134;-38
2023/12/04 05:32:32;;;;;;;14.25;7.20;;;-4.30;99.90;;;-5.65;100.00;97007.22;4992164;28;20514;-37
2023/12/04 05:34:58;;;;;;;16.60;7.82;;;-4.40;99.90;;;-5.63;100.00;97005.56;4990869;28;20045;-40
2023/12/04 05:37:24;;;;;;;16.17;7.13;;;-4.40;99.90;;;-5.67;100.00;96996.06;4992759;28;20091;-38
2023/12/04 05:39:49;;;;;;;15.73;7.78;;;-4.40;99.90;;;-5.66;100.00;97002.91;4990993;28;20026;-40
2023/12/04 05:42:16;;;;;;;16.02;7.82;;;-4.40;99.90;;;-5.67;100.00;97005.44;4990122;28;20163;-39
2023/12/04 05:44:41;;;;;;;18.45;7.57;;;-4.30;99.90;;;-5.75;100.00;96983.03;4989516;28;20042;-41
2023/12/04 05:47:08;;;;;;;16.85;7.18;;;-4.40;99.90;;;-5.69;100.00;96987.44;4984301;28;20041;-39
2023/12/04 05:49:34;;;;;;;15.73;6.95;;;-4.30;99.90;;;-5.78;100.00;96976.97;4992188;28;20037;-37
2023/12/04 05:52:00;;;;;;;14.63;7.30;;;-4.30;99.90;;;-5.63;100.00;97007.28;4989558;28;20023;-39
2023/12/04 05:54:25;;;;;;;15.00;7.72;;;-4.30;99.90;;;-5.57;100.00;96997.97;4990236;28;20026;-38
2023/12/04 05:56:51;;;;;;;16.50;7.95;;;-4.30;99.90;;;-5.56;100.00;96997.13;4993793;28;20057;-38
2023/12/04 05:59:17;;;;;;;15.75;7.10;;;-4.30;99.90;;;-5.54;100.00;96998.84;4993529;28;20030;-37
2023/12/04 06:01:43;;;;;;;13.27;7.30;;;-4.30;99.90;;;-5.56;100.00;97004.84;4990643;28;20458;-38
2023/12/04 06:04:08;;;;;;;14.50;6.55;;;-4.30;99.90;;;-5.52;100.00;96998.06;4998914;28;20872;-38
2023/12/04 06:06:34;;;;;;;14.45;7.30;;;-4.30;99.90;;;-5.56;100.00;96999.69;4995577;28;20050;-36
2023/12/04 06:09:00;;;;;;;14.57;7.00;;;-4.20;99.90;;;-5.52;100.00;97004.91;4993657;28;20456;-36
2023/12/04 06:11:25;;;;;;;13.98;6.97;;;-4.30;99.90;;;-5.52;100.00;97007.47;4993202;28;20046;-36
2023/12/04 06:13:51;;;;;;;15.43;7.38;;;-4.30;99.90;;;-5.58;100.00;97003.94;4997150;28;20037;-36
2023/12/04 06:16:17;;;;;;;13.30;6.68;;;-4.30;99.90;;;-5.50;100.00;97010.94;4975725;28;20045;-36
2023/12/04 06:18:43;;;;;;;16.25;8.07;;;-4.30;99.90;;;-5.69;100.00;96978.88;4991634;28;20535;-36
2023/12/04 06:21:09;;;;;;;14.25;6.70;;;-4.20;99.90;;;-5.49;100.00;96998.13;4992420;28;20029;-36
2023/12/04 06:23:35;;;;;;;11.73;6.75;;;-4.30;99.90;;;-5.51;100.00;96991.22;4995913;28;20025;-36
2023/12/04 06:26:01;;;;;;;13.50;6.38;;;-4.20;99.90;;;-5.44;100.00;96993.91;4995101;28;20037;-36
2023/12/04 06:28:27;;;;;;;13.32;6.63;;;-4.20;99.90;;;-5.40;100.00;96994.84;4997008;28;20034;-36
2023/12/04 06:30:53;;;;;;;13.93;6.88;;;-4.20;99.90;;;-5.42;100.00;96996.53;4992058;28;20042;-36
2023/12/04 06:33:20;;;;;;;12.15;6.57;;;-4.20;99.90;;;-5.47;100.00;96977.56;4992497;28;20517;-36
2023/12/04 06:35:46;;;;;;;14.50;7.43;;;-4.10;99.90;;;-5.38;100.00;96985.47;4989012;28;20041;-36
2023/12/04 06:38:19;;;;;;;14.70;7.30;;;-4.10;99.90;;;-5.34;100.00;96987.28;4987496;28;20113;-36
2023/12/04 06:40:45;;;;;;;15.23;7.25;;;-4.10;99.90;;;-5.31;100.00;96982.19;4989601;28;20096;-36
2023/12/04 06:43:11;;;;;;;13.05;6.88;;;-4.10;99.90;;;-5.37;100.00;96972.63;4988397;28;20053;-36
2023/12/04 06:45:37;;;;;;;14.50;7.07;;;-4.00;99.90;;;-5.56;100.00;96947.47;4989749;28;20026;-37
2023/12/04 06:48:03;;;;;;;12.55;6.63;;;-4.10;99.90;;;-5.42;100.00;96968.25;4994491;28;20915;-37
2023/12/04 06:50:28;;;;;;;12.38;6.90;;;-4.10;99.90;;;-5.41;100.00;96962.28;4993947;28;20123;-36
2023/12/04 06:52:54;;;;;;;14.35;6.90;;;-4.10;99.90;;;-5.40;100.00;96976.84;4996232;28;20030;-36
2023/12/04 06:55:20;;;;;;;15.57;7.35;;;-4.10;99.90;;;-5.45;100.00;96979.34;4994513;28;20153;-36
2023/12/04 06:57:46;;;;;;;13.48;6.70;;;-4.10;99.90;;;-5.39;100.00;96981.16;4994758;28;20137;-36
2023/12/04 07:00:16;;;;;;;14.68;6.32;;;-4.10;99.90;;;-5.41;100.00;96963.16;4994689;28;20036;-36
2023/12/04 07:02:42;;;;;;;12.73;6.93;;;-4.10;99.90;;;-5.37;100.00;96982.06;4993906;28;20046;-36
2023/12/04 07:05:07;;;;;;;13.43;6.90;;;-4.10;99.90;;;-5.32;100.00;96984.72;4992337;28;21072;-36
2023/12/04 07:07:33;;;;;;;16.13;7.30;;;-4.10;99.90;;;-5.32;100.00;96975.31;4992973;28;20542;-37
2023/12/04 07:09:59;;;;;;;11.60;6.22;;;-4.00;99.90;;;-5.27;100.00;96965.13;4983263;28;20053;-36
2023/12/04 07:12:25;;;;;;;12.65;6.53;;;-4.00;99.90;;;-5.24;100.00;96966.03;4966905;28;20019;-36
2023/12/04 07:14:51;;;;;;;11.82;6.70;;;-4.00;99.90;;;-5.17;100.00;96964.41;4992730;28;20061;-36
2023/12/04 07:17:16;;;;;;;13.68;6.80;;;-3.90;99.90;;;-5.12;100.00;96961.94;4991151;28;20516;-36
2023/12/04 07:19:42;;;;;;;11.35;6.32;;;-3.90;99.90;;;-5.05;100.00;96948.34;4982621;28;20033;-36
2023/12/04 07:22:08;;;;;;;15.65;7.18;;;-3.80;99.90;;;-5.02;100.00;96945.84;4987614;28;20394;-37
2023/12/04 07:24:33;;;;;;;13.45;6.97;;;-3.70;99.90;;;-4.93;100.00;96951.13;4995504;28;20450;-36
2023/12/04 07:26:59;;;;;;;13.93;6.70;;;-3.70;99.90;;;-4.85;100.00;96946.97;4993247;28;20049;-37
2023/12/04 07:29:25;;;;;;;15.43;7.18;;;-3.60;99.90;;;-4.82;100.00;96954.75;4988629;28;20034;-36
2023/12/04 07:31:51;;;;;;;13.43;7.57;;;-3.60;99.90;;;-4.78;100.00;96952.22;4977450;28;20076;-37
2023/12/04 07:34:17;;;;;;;16.48;8.32;;;-3.50;99.90;;;-4.75;100.00;96944.56;4984918;28;20096;-37
2023/12/04 07:36:44;;;;;;;18.17;8.15;;;-3.50;99.90;;;-4.80;100.00;96923.91;4985527;28;20355;-36
2023/12/04 07:39:10;;;;;;;18.10;8.20;;;-3.50;99.90;;;-4.66;100.00;96936.97;4981803;28;20041;-37
2023/12/04 07:41:37;;;;;;;17.85;8.50;;;-3.50;99.90;;;-4.61;100.00;96945.63;4984693;28;20475;-36
2023/12/04 07:44:03;;;;;;;16.77;8.90;;;-3.40;99.90;;;-4.61;100.00;96925.06;4980442;28;20096;-37
2023/12/04 07:46:29;;;;;;;21.83;8.85;;;-3.40;99.90;;;-4.56;100.00;96919.97;4976753;28;20053;-37
2023/12/04 07:48:55;;;;;;;18.80;8.80;;;-3.40;99.90;;;-4.54;100.00;96939.75;4968906;28;20065;-37
2023/12/04 07:51:21;;;;;;;19.05;8.57;;;-3.30;99.90;;;-4.51;100.00;96932.03;4984775;28;20481;-37
2023/12/04 07:53:47;;;;;;;17.30;7.70;;;-3.30;99.90;;;-4.53;100.00;96920.88;4993241;28;20034;-37
2023/12/04 07:56:13;;;;;;;15.13;7.28;;;-3.20;99.90;;;-4.45;100.00;96916.72;4993658;28;20042;-38
2023/12/04 07:58:39;;;;;;;17.98;8.23;;;-3.20;99.90;;;-4.29;100.00;96932.34;4993332;28;20026;-37
2023/12/04 08:01:05;;;;;;;15.57;8.05;;;-3.10;99.90;;;-4.17;100.00;96921.38;4989079;28;20022;-37
2023/12/04 08:03:31;;;;;;;15.02;7.88;;;-3.00;99.90;;;-4.09;100.00;96920.63;4990109;28;20103;-37
2023/12/04 08:05:58;;;;;;;16.80;8.43;;;-2.90;99.90;;;-3.99;100.00;96928.47;4990955;28;20521;-37
2023/12/04 08:08:24;;;;;;;20.38;9.27;;;-2.80;99.90;;;-3.98;100.00;96907.88;4988252;28;20038;-37
2023/12/04 08:10:49;;;;;;;20.73;9.10;;;-2.80;99.90;;;-3.77;100.00;96938.16;4989459;28;20030;-37
2023/12/04 08:13:16;;;;;;;18.92;8.82;;;-2.70;99.90;;;-3.78;100.00;96921.00;4987168;28;20050;-37
2023/12/04 08:15:42;;;;;;;18.60;8.48;;;-2.60;99.90;;;-3.58;100.00;96921.22;4978050;28;20433;-36
2023/12/04 08:18:08;;;;;;;16.40;8.52;;;-2.50;99.90;;;-3.53;100.00;96914.41;4984591;28;20443;-36
2023/12/04 08:20:34;;;;;;;19.48;8.30;;;-2.40;99.90;;;-3.48;100.00;96917.88;4985510;28;20112;-38
2023/12/04 08:23:00;;;;;;;19.05;8.70;;;-2.30;99.90;;;-3.44;100.00;96905.91;4980430;28;20042;-36
2023/12/04 08:25:25;;;;;;;13.00;7.53;;;-2.30;99.90;;;-3.46;100.00;96889.56;4965578;28;20486;-36
2023/12/04 08:27:51;;;;;;;18.15;8.52;;;-2.30;99.90;;;-3.44;100.00;96890.44;4981701;28;20026;-37
2023/12/04 08:30:17;;;;;;;14.23;7.72;;;-2.30;99.90;;;-3.49;100.00;96887.78;4984132;28;20403;-36
2023/12/04 08:32:43;;;;;;;15.50;7.47;;;-2.30;99.90;;;-3.41;100.00;96884.41;4991871;28;20116;-36
2023/12/04 08:35:09;;;;;;;16.23;8.18;;;-2.20;99.90;;;-3.35;100.00;96874.19;4993970;28;20048;-36
2023/12/04 08:37:35;;;;;;;15.65;8.00;;;-2.20;99.90;;;-3.40;100.00;96861.22;4991126;28;20081;-36
2023/12/04 08:40:02;;;;;;;14.27;7.10;;;-2.10;99.90;;;-3.16;100.00;96888.09;4989877;28;20026;-36
2023/12/04 08:42:29;;;;;;;13.98;7.38;;;-2.10;99.90;;;-3.12;100.00;96887.28;4976961;28;20058;-36
2023/12/04 08:44:55;;;;;;;13.73;7.68;;;-2.00;99.90;;;-3.09;100.00;96898.50;4974705;28;20041;-36
2023/12/04 08:47:20;;;;;;;14.77;7.32;;;-2.00;99.90;;;-3.04;100.00;96889.91;4986316;28;20092;-36
2023/12/04 08:49:46;;;;;;;11.88;7.05;;;-1.90;99.90;;;-2.90;100.00;96902.06;4985020;28;20110;-36
2023/12/04 08:52:12;;;;;;;11.73;6.55;;;-1.80;99.90;;;-2.76;100.00;96896.16;4979391;28;20085;-36
2023/12/04 08:54:41;;;;;;;13.68;7.25;;;-1.70;99.90;;;-2.74;100.00;96884.13;4987078;28;20497;-36
2023/12/04 08:57:07;;;;;;;12.07;6.53;;;-1.60;99.90;;;-2.54;100.00;96892.84;4983774;28;20026;-35
2023/12/04 08:59:33;;;;;;;13.18;6.72;;;-1.40;99.90;;;-2.41;100.00;96887.78;4983006;28;20442;-36
2023/12/04 09:01:59;;;;;;;12.57;6.50;;;-1.30;99.90;;;-2.36;100.00;96896.41;4979769;28;20530;-36
2023/12/04 09:04:24;;;;;;;12.77;6.28;;;-1.30;99.90;;;-2.35;100.00;96888.69;4970370;28;20204;-36
2023/12/04 09:06:50;;;;;;;11.75;6.55;;;-1.30;99.90;;;-2.29;100.00;96898.19;4983858;28;20191;-36
2023/12/04 09:09:16;;;;;;;12.88;6.18;;;-1.20;99.90;;;-2.27;100.00;96905.94;4971891;28;20037;-36
2023/12/04 09:11:43;;;;;;;13.10;6.15;;;-1.20;99.90;;;-2.40;100.00;96884.34;4985905;28;20050;-36
2023/12/04 09:14:09;;;;;;;12.98;6.38;;;-1.20;99.90;;;-2.29;100.00;96905.94;4985186;28;20037;-36
2023/12/04 09:16:35;;;;;;;10.43;6.10;;;-1.20;99.90;;;-2.33;100.00;96899.03;4989755;28;20034;-36
2023/12/04 09:19:01;;;;;;;10.82;5.95;;;-1.20;99.90;;;-2.43;100.00;96869.69;4989813;28;20061;-37
2023/12/04 09:21:26;;;;;;;12.40;5.93;;;-1.20;99.90;;;-2.42;100.00;96875.69;4986935;28;20041;-36
2023/12/04 09:23:52;;;;;;;12.20;6.93;;;-1.20;99.90;;;-2.40;100.00;96887.78;4987645;28;20026;-36
2023/12/04 09:26:18;;;;;;;13.23;6.80;;;-1.30;99.90;;;-2.41;100.00;96890.34;4983989;28;20033;-36
2023/12/04 09:28:44;;;;;;;13.68;6.22;;;-1.20;99.90;;;-2.54;100.00;96874.78;4985576;28;20068;-36
2023/12/04 09:31:10;;;;;;;12.65;6.18;;;-1.30;99.90;;;-2.41;100.00;96874.88;4983870;28;20041;-36
2023/12/04 09:33:36;;;;;;;14.60;6.65;;;-1.30;99.90;;;-2.25;100.00;96884.41;4991050;28;20490;-36
2023/12/04 09:36:03;;;;;;;12.70;6.13;;;-1.10;99.90;;;-2.15;100.00;96880.19;4988266;28;20105;-36
2023/12/04 09:38:29;;;;;;;12.52;6.60;;;-1.10;99.90;;;-2.13;100.00;96887.06;4990864;28;20912;-36
2023/12/04 09:41:01;;;;;;;13.13;6.95;;;-1.00;99.90;;;-2.06;100.00;96884.50;4980990;28;20034;-37
2023/12/04 09:43:30;;;;;;;14.27;6.32;;;-0.90;99.90;;;-2.05;100.00;96861.25;4994374;28;20894;-36
2023/12/04 09:45:57;;;;;;;10.75;6.03;;;-0.90;99.90;;;-2.02;100.00;96857.84;4985727;28;20053;-37
2023/12/04 09:48:26;;;;;;;11.27;6.10;;;-0.80;99.90;;;-1.88;100.00;96886.28;4992119;28;20568;-35
2023/12/04 09:50:52;;;;;;;13.05;5.97;;;-0.80;99.90;;;-1.89;100.00;96885.44;4995848;28;20034;-36
2023/12/04 09:53:18;;;;;;;11.43;5.88;;;-0.80;99.90;;;-1.82;100.00;96876.00;4991644;28;20034;-36
2023/12/04 09:55:47;;;;;;;12.15;6.28;;;-0.80;99.90;;;-1.81;100.00;96881.16;4991800;28;20088;-36
2023/12/04 09:58:14;;;;;;;12.73;6.20;;;-0.70;99.90;;;-1.87;100.00;96880.28;4968323;28;20026;-37
2023/12/04 10:00:42;;;;;;;14.18;6.57;;;-0.70;99.90;;;-1.97;100.00;96892.31;4984256;28;20490;-36